createdAt,value
2022-09-11T00:01:00.995Z,35.65
2022-09-11T00:03:30.073Z,33.97
2022-09-11T00:05:56.761Z,48.03
2022-09-11T00:08:23.372Z,41.30
2022-09-11T00:10:50.014Z,45.13
2022-09-11T00:13:21.899Z,46.80
2022-09-11T00:15:51.411Z,50.40
2022-09-11T00:18:21.867Z,59.03
2022-09-11T00:20:51.125Z,49.97
2022-09-11T00:23:19.395Z,52.13
2022-09-11T00:25:46.753Z,45.03
2022-09-11T00:28:18.240Z,50.03
2022-09-11T00:30:44.996Z,48.00
2022-09-11T00:33:16.613Z,48.05
2022-09-11T00:35:44.829Z,55.33
2022-09-11T00:38:17.038Z,48.85
2022-09-11T00:40:48.249Z,61.00
2022-09-11T00:43:16.688Z,47.70
2022-09-11T00:48:17.948Z,41.90
2022-09-11T00:50:44.700Z,51.65
2022-09-11T00:53:15.016Z,41.17
2022-09-11T00:55:44.800Z,42.17
2022-09-11T00:58:16.066Z,40.80
2022-09-11T01:00:44.182Z,43.45
2022-09-11T01:03:11.135Z,38.42
2022-09-11T01:05:41.362Z,40.65
2022-09-11T01:08:08.294Z,44.55
2022-09-11T01:11:13.572Z,45.10
2022-09-11T01:13:43.172Z,38.22
2022-09-11T01:16:49.254Z,34.58
2022-09-11T01:19:27.476Z,40.97
2022-09-11T01:22:20.355Z,41.17
2022-09-11T01:25:10.620Z,46.30
2022-09-11T01:27:45.367Z,41.38
2022-09-11T01:30:18.200Z,47.55
2022-09-11T01:33:18.581Z,46.58
2022-09-11T01:36:06.980Z,54.55
2022-09-11T01:41:32.207Z,51.55
2022-09-11T01:44:04.008Z,56.95
2022-09-11T01:46:35.267Z,63.40
2022-09-11T01:49:06.767Z,59.60
2022-09-11T01:51:34.811Z,68.60
2022-09-11T01:54:03.736Z,71.85
2022-09-11T01:56:36.501Z,62.10
2022-09-11T01:59:09.315Z,76.93
2022-09-11T02:01:38.577Z,70.85
2022-09-11T02:04:10.644Z,64.32
2022-09-11T02:06:46.343Z,73.57
2022-09-11T02:09:15.212Z,75.78
2022-09-11T02:11:42.869Z,76.28
2022-09-11T02:14:22.665Z,63.90
2022-09-11T02:16:51.987Z,67.15
2022-09-11T02:19:26.637Z,75.22
2022-09-11T02:21:53.340Z,66.25
2022-09-11T02:24:20.827Z,64.57
2022-09-11T02:26:50.496Z,59.50
2022-09-11T02:29:17.045Z,60.97
2022-09-11T02:31:44.183Z,64.70
2022-09-11T02:34:14.510Z,52.75
2022-09-11T02:37:13.015Z,59.10
2022-09-11T02:40:07.211Z,51.67
2022-09-11T02:43:01.996Z,48.63
2022-09-11T02:45:59.636Z,44.80
2022-09-11T02:48:54.191Z,58.88
2022-09-11T02:51:41.460Z,54.72
2022-09-11T02:54:14.821Z,45.72
2022-09-11T02:56:49.384Z,46.30
2022-09-11T02:59:24.480Z,44.92
2022-09-11T03:01:53.561Z,41.95
2022-09-11T03:04:22.392Z,46.42
2022-09-11T03:06:50.316Z,48.28
2022-09-11T03:09:17.845Z,44.13
2022-09-11T03:11:45.488Z,52.97
2022-09-11T03:14:12.460Z,40.97
2022-09-11T03:16:39.242Z,39.00
2022-09-11T03:19:05.997Z,47.40
2022-09-11T03:21:32.837Z,44.85
2022-09-11T03:23:59.393Z,41.70
2022-09-11T03:26:26.023Z,36.50
2022-09-11T03:28:53.683Z,42.00
2022-09-11T03:31:20.840Z,44.33
2022-09-11T03:33:47.404Z,39.42
2022-09-11T03:36:14.696Z,48.17
2022-09-11T03:38:41.312Z,47.33
2022-09-11T03:41:09.331Z,36.85
2022-09-11T03:43:35.859Z,47.67
2022-09-11T03:46:03.268Z,36.03
2022-09-11T03:48:30.068Z,42.67
2022-09-11T03:50:56.726Z,40.33
2022-09-11T03:53:23.290Z,38.03
2022-09-11T03:55:52.494Z,37.95
2022-09-11T03:58:19.446Z,42.20
2022-09-11T04:00:47.509Z,39.65
2022-09-11T04:03:17.999Z,42.20
2022-09-11T04:05:57.317Z,32.40
2022-09-11T04:08:23.903Z,34.95
2022-09-11T04:10:57.065Z,39.05
2022-09-11T04:13:30.674Z,41.35
2022-09-11T04:16:03.096Z,36.80
2022-09-11T04:18:31.374Z,38.80
2022-09-11T04:20:58.500Z,36.15
2022-09-11T04:23:25.388Z,41.20
2022-09-11T04:25:52.522Z,34.65
2022-09-11T04:28:19.778Z,35.70
2022-09-11T04:30:46.361Z,34.75
2022-09-11T04:33:12.925Z,33.80
2022-09-11T04:35:40.545Z,35.17
2022-09-11T04:38:07.944Z,38.17
2022-09-11T04:40:35.261Z,35.60
2022-09-11T04:43:02.489Z,36.03
2022-09-11T04:45:33.463Z,40.13
2022-09-11T04:48:03.076Z,32.28
2022-09-11T04:50:31.469Z,44.42
2022-09-11T04:52:58.684Z,48.70
2022-09-11T04:55:26.041Z,44.95
2022-09-11T04:57:54.032Z,43.65
2022-09-11T05:00:20.816Z,38.45
2022-09-11T05:02:47.811Z,44.30
2022-09-11T05:05:14.530Z,32.63
2022-09-11T05:07:41.100Z,36.63
2022-09-11T05:10:08.302Z,40.13
2022-09-11T05:12:34.952Z,34.95
2022-09-11T05:15:01.486Z,51.28
2022-09-11T05:17:28.097Z,44.05
2022-09-11T05:19:55.986Z,46.20
2022-09-11T05:22:23.250Z,44.78
2022-09-11T05:24:49.890Z,39.17
2022-09-11T05:27:16.513Z,47.38
2022-09-11T05:29:43.040Z,40.58
2022-09-11T05:32:11.106Z,40.65
2022-09-11T05:34:37.686Z,44.10
2022-09-11T05:37:04.444Z,42.75
2022-09-11T05:39:31.148Z,52.97
2022-09-11T05:41:57.680Z,45.40
2022-09-11T05:44:24.241Z,52.03
2022-09-11T05:46:50.840Z,47.10
2022-09-11T05:49:17.611Z,46.65
2022-09-11T05:51:44.293Z,40.47
2022-09-11T05:54:10.923Z,51.00
2022-09-11T05:56:37.481Z,39.05
2022-09-11T05:59:04.173Z,46.35
2022-09-11T06:01:31.284Z,41.10
2022-09-11T06:03:58.051Z,44.53
2022-09-11T06:06:24.989Z,38.92
2022-09-11T06:08:52.890Z,36.85
2022-09-11T06:11:21.175Z,35.47
2022-09-11T06:13:49.041Z,36.65
2022-09-11T06:16:22.878Z,44.55
2022-09-11T06:18:51.099Z,38.72
2022-09-11T06:21:20.507Z,43.45
2022-09-11T06:23:48.652Z,44.55
2022-09-11T06:26:17.807Z,48.88
2022-09-11T06:28:44.495Z,42.97
2022-09-11T06:31:19.240Z,41.85
2022-09-11T06:33:47.005Z,45.85
2022-09-11T06:36:14.509Z,41.47
2022-09-11T06:38:41.206Z,40.00
2022-09-11T06:41:11.933Z,45.65
2022-09-11T06:43:38.795Z,38.58
2022-09-11T06:46:06.710Z,43.95
2022-09-11T06:48:33.484Z,37.47
2022-09-11T06:51:08.261Z,40.67
2022-09-11T06:53:35.138Z,39.50
2022-09-11T06:56:02.809Z,40.17
2022-09-11T06:58:29.843Z,35.97
2022-09-11T07:01:06.867Z,39.47
2022-09-11T07:03:33.888Z,39.58
2022-09-11T07:06:01.257Z,43.22
2022-09-11T07:08:28.124Z,38.42
2022-09-11T07:10:54.809Z,40.42
2022-09-11T07:13:24.378Z,43.13
2022-09-11T07:16:00.310Z,40.45
2022-09-11T07:18:26.896Z,48.47
2022-09-11T07:20:53.472Z,45.17
2022-09-11T07:23:20.129Z,45.75
2022-09-11T07:25:46.668Z,41.47
2022-09-11T07:28:13.241Z,40.55
2022-09-11T07:30:41.233Z,44.53
2022-09-11T07:33:07.953Z,54.50
2022-09-11T07:35:37.393Z,50.88
2022-09-11T07:38:04.165Z,43.10
2022-09-11T07:40:31.425Z,38.42
2022-09-11T07:42:58.046Z,43.72
2022-09-11T07:45:24.652Z,43.00
2022-09-11T07:47:51.243Z,41.03
2022-09-11T07:50:18.129Z,41.85
2022-09-11T07:52:44.684Z,44.20
2022-09-11T07:55:11.365Z,40.15
2022-09-11T07:57:38.184Z,39.70
2022-09-11T08:00:05.249Z,41.38
2022-09-11T08:02:31.846Z,42.30
2022-09-11T08:04:58.453Z,37.15
2022-09-11T08:07:25.560Z,41.13
2022-09-11T08:10:04.632Z,33.92
2022-09-11T08:12:38.704Z,37.05
2022-09-11T08:15:05.581Z,38.40
2022-09-11T08:17:32.705Z,40.80
2022-09-11T08:19:59.268Z,38.80
2022-09-11T08:22:25.858Z,41.08
2022-09-11T08:24:52.432Z,37.10
2022-09-11T08:27:19.044Z,37.20
2022-09-11T08:29:46.003Z,41.28
2022-09-11T08:32:13.341Z,34.33
2022-09-11T08:34:40.072Z,35.05
2022-09-11T08:37:06.633Z,38.78
2022-09-11T08:39:33.165Z,36.03
2022-09-11T08:42:04.550Z,36.08
2022-09-11T08:44:46.336Z,31.77
2022-09-11T08:47:19.828Z,33.97
2022-09-11T08:49:55.585Z,34.38
2022-09-11T08:52:22.439Z,37.15
2022-09-11T08:54:49.460Z,34.30
2022-09-11T08:57:35.225Z,31.02
2022-09-11T09:00:18.947Z,30.55
2022-09-11T09:03:17.488Z,31.70
2022-09-11T09:05:56.306Z,30.75
2022-09-11T09:08:45.589Z,29.77
2022-09-11T09:11:40.889Z,29.50
2022-09-11T09:14:25.685Z,23.13
2022-09-11T09:17:12.783Z,29.45
2022-09-11T09:19:40.377Z,29.85
2022-09-11T09:22:21.506Z,26.45
2022-09-11T09:24:55.077Z,29.95
2022-09-11T09:27:28.323Z,31.10
2022-09-11T09:29:55.938Z,26.80
2022-09-11T09:32:46.024Z,28.37
2022-09-11T09:35:27.043Z,20.30
2022-09-11T09:37:54.240Z,23.00
2022-09-11T09:40:21.732Z,25.15
2022-09-11T09:42:59.627Z,23.05
2022-09-11T09:45:48.666Z,22.88
2022-09-11T09:48:15.558Z,21.92
2022-09-11T09:50:44.215Z,36.42
2022-09-11T09:53:38.252Z,34.72
2022-09-11T09:56:05.588Z,26.98
2022-09-11T09:58:41.067Z,26.65
2022-09-11T10:01:39.984Z,27.48
2022-09-11T10:04:13.496Z,33.22
2022-09-11T10:06:40.181Z,20.92
2022-09-11T10:09:06.745Z,38.00
2022-09-11T10:11:33.413Z,33.83
2022-09-11T10:13:59.967Z,34.50
2022-09-11T10:16:27.956Z,36.08
2022-09-11T10:18:56.107Z,31.95
2022-09-11T10:21:29.490Z,35.03
2022-09-11T10:24:17.642Z,33.17
2022-09-11T10:26:46.689Z,31.83
2022-09-11T10:29:17.170Z,31.88
2022-09-11T10:31:55.234Z,35.17
2022-09-11T10:34:24.389Z,31.90
2022-09-11T10:37:00.853Z,37.22
2022-09-11T10:39:29.900Z,30.52
2022-09-11T10:41:59.520Z,31.20
2022-09-11T10:44:27.540Z,29.65
2022-09-11T10:47:15.355Z,40.40
2022-09-11T10:49:42.522Z,35.63
2022-09-11T10:52:09.125Z,31.25
2022-09-11T10:55:01.371Z,33.33
2022-09-11T10:57:34.974Z,30.83
2022-09-11T11:00:12.292Z,32.58
2022-09-11T11:02:56.526Z,30.92
2022-09-11T11:05:41.476Z,34.78
2022-09-11T11:08:30.087Z,31.40
2022-09-11T11:11:15.273Z,31.52
2022-09-11T11:14:07.244Z,26.15
2022-09-11T11:16:44.290Z,28.88
2022-09-11T11:19:23.061Z,26.88
2022-09-11T11:22:09.253Z,25.75
2022-09-11T11:25:00.131Z,27.30
2022-09-11T11:27:52.255Z,23.15
2022-09-11T11:30:21.406Z,23.58
2022-09-11T11:33:19.722Z,26.38
2022-09-11T11:36:10.524Z,23.38
2022-09-11T11:39:05.566Z,19.25
2022-09-11T11:41:35.853Z,24.13
2022-09-11T11:44:06.168Z,19.85
2022-09-11T11:46:38.916Z,21.05
2022-09-11T11:49:11.096Z,19.13
2022-09-11T11:52:15.233Z,15.15
2022-09-11T11:54:57.239Z,18.60
2022-09-11T11:57:28.196Z,20.92
2022-09-11T12:00:10.560Z,19.25
2022-09-11T12:02:55.233Z,17.10
2022-09-11T12:05:27.316Z,18.77
2022-09-11T12:07:54.208Z,14.90
2022-09-11T12:10:23.429Z,18.63
2022-09-11T12:12:57.961Z,10.63
2022-09-11T12:15:29.315Z,11.18
2022-09-11T12:18:15.628Z,13.55
2022-09-11T12:20:43.599Z,11.32
2022-09-11T12:23:35.695Z,12.02
2022-09-11T12:26:08.235Z,9.15
2022-09-11T12:28:38.006Z,11.02
2022-09-11T12:31:20.099Z,6.85
2022-09-11T12:33:51.168Z,8.88
2022-09-11T12:36:24.534Z,12.38
2022-09-11T12:39:00.079Z,11.57
2022-09-11T12:41:30.419Z,12.25
2022-09-11T12:43:57.391Z,13.63
2022-09-11T12:46:24.506Z,8.85
2022-09-11T12:49:22.513Z,7.88
2022-09-11T12:51:55.227Z,9.07
2022-09-11T12:54:27.884Z,11.68
2022-09-11T12:57:12.837Z,8.15
2022-09-11T12:59:44.574Z,8.40
2022-09-11T13:02:28.535Z,9.27
2022-09-11T13:04:55.601Z,9.63
2022-09-11T13:07:32.343Z,10.10
2022-09-11T13:10:09.283Z,9.02
2022-09-11T13:12:35.800Z,10.98
2022-09-11T13:15:02.484Z,8.60
2022-09-11T13:17:45.585Z,7.53
2022-09-11T13:20:21.630Z,8.77
2022-09-11T13:22:49.655Z,7.05
2022-09-11T13:25:18.984Z,5.20
2022-09-11T13:27:51.049Z,6.68
2022-09-11T13:30:21.631Z,8.05
2022-09-11T13:32:51.168Z,6.47
2022-09-11T13:35:25.619Z,6.35
2022-09-11T13:38:02.729Z,5.80
2022-09-11T13:40:33.471Z,5.78
2022-09-11T13:43:00.858Z,6.60
2022-09-11T13:45:28.933Z,8.77
2022-09-11T13:47:55.648Z,6.22
2022-09-11T13:50:23.444Z,5.07
2022-09-11T13:52:51.617Z,5.13
2022-09-11T13:55:21.677Z,5.45
2022-09-11T13:57:56.821Z,7.47
2022-09-11T14:00:44.825Z,5.75
2022-09-11T14:03:28.104Z,5.25
2022-09-11T14:06:06.783Z,7.13
2022-09-11T14:08:36.245Z,5.97
2022-09-11T14:11:11.790Z,6.20
2022-09-11T14:13:46.548Z,7.55
2022-09-11T14:16:13.513Z,6.60
2022-09-11T14:18:49.260Z,8.60
2022-09-11T14:21:17.940Z,8.02
2022-09-11T14:23:51.844Z,7.38
2022-09-11T14:26:21.408Z,6.00
2022-09-11T14:28:59.658Z,5.35
2022-09-11T14:31:30.372Z,6.75
2022-09-11T14:34:29.391Z,6.88
2022-09-11T14:37:03.525Z,7.55
2022-09-11T14:39:43.500Z,4.45
2022-09-11T14:42:16.812Z,4.55
2022-09-11T14:44:43.974Z,12.25
2022-09-11T14:47:17.154Z,7.35
2022-09-11T14:49:45.215Z,5.80
2022-09-11T14:52:20.504Z,5.68
2022-09-11T14:54:47.634Z,5.00
2022-09-11T14:57:23.030Z,5.28
2022-09-11T14:59:49.793Z,4.20
2022-09-11T15:02:24.194Z,5.10
2022-09-11T15:04:53.044Z,7.22
2022-09-11T15:07:21.248Z,5.05
2022-09-11T15:09:48.202Z,4.95
2022-09-11T15:12:15.599Z,13.40
2022-09-11T15:14:56.324Z,10.43
2022-09-11T15:17:25.461Z,7.18
2022-09-11T15:19:52.823Z,3.95
2022-09-11T15:22:19.703Z,5.95
2022-09-11T15:24:48.156Z,3.95
2022-09-11T15:29:42.942Z,5.95
2022-09-11T15:32:10.318Z,3.35
2022-09-11T15:34:39.232Z,3.70
2022-09-11T15:37:06.149Z,3.42
2022-09-11T15:39:34.162Z,5.07
2022-09-11T15:42:01.986Z,4.28
2022-09-11T15:44:29.354Z,4.82
2022-09-11T15:46:57.617Z,5.75
2022-09-11T15:49:24.803Z,4.18
2022-09-11T15:51:53.780Z,3.92
2022-09-11T15:54:20.626Z,3.08
2022-09-11T15:56:47.608Z,3.53
2022-09-11T15:59:15.328Z,3.78
2022-09-11T16:01:42.768Z,4.13
2022-09-11T16:04:12.038Z,5.72
2022-09-11T16:06:41.007Z,5.95
2022-09-11T16:09:10.245Z,4.45
2022-09-11T16:11:36.872Z,4.47
2022-09-11T16:14:03.630Z,6.13
2022-09-11T16:16:30.340Z,18.98
2022-09-11T16:18:58.612Z,13.20
2022-09-11T16:21:27.361Z,6.97
2022-09-11T16:24:00.669Z,5.70
2022-09-11T16:26:29.141Z,4.93
2022-09-11T16:28:55.750Z,5.57
2022-09-11T16:31:22.395Z,4.10
2022-09-11T16:33:49.849Z,5.40
2022-09-11T16:36:20.867Z,5.40
2022-09-11T16:38:50.178Z,8.32
2022-09-11T16:41:19.424Z,11.77
2022-09-11T16:43:48.182Z,8.25
2022-09-11T16:46:24.382Z,7.93
2022-09-11T16:48:54.451Z,4.82
2022-09-11T16:51:23.447Z,5.82
2022-09-11T16:53:50.508Z,6.40
2022-09-11T16:56:19.424Z,5.45
2022-09-11T16:58:46.702Z,9.15
2022-09-11T17:01:16.637Z,4.90
2022-09-11T17:03:49.021Z,5.93
2022-09-11T17:06:16.778Z,6.68
2022-09-11T17:08:44.751Z,5.53
2022-09-11T17:11:15.885Z,6.78
2022-09-11T17:13:43.832Z,5.40
2022-09-11T17:16:16.133Z,6.75
2022-09-11T17:18:47.420Z,6.07
2022-09-11T17:21:14.363Z,5.25
2022-09-11T17:23:41.040Z,6.47
2022-09-11T17:26:09.311Z,8.48
2022-09-11T17:28:36.929Z,6.80
2022-09-11T17:31:04.769Z,6.30
2022-09-11T17:33:35.484Z,5.88
2022-09-11T17:36:06.033Z,6.43
2022-09-11T17:38:33.492Z,7.07
2022-09-11T17:41:03.896Z,8.35
2022-09-11T17:43:33.305Z,5.72
2022-09-11T17:46:15.099Z,4.82
2022-09-11T17:48:42.946Z,8.55
2022-09-11T17:51:20.151Z,6.03
2022-09-11T17:53:49.304Z,7.75
2022-09-11T17:56:18.656Z,9.98
2022-09-11T17:58:45.666Z,6.65
2022-09-11T18:01:16.808Z,6.50
2022-09-11T18:03:44.572Z,6.32
2022-09-11T18:06:23.027Z,5.50
2022-09-11T18:11:16.040Z,6.25
2022-09-11T18:13:42.978Z,5.53
2022-09-11T18:16:11.704Z,4.93
2022-09-11T18:18:41.828Z,5.25
2022-09-11T18:21:10.240Z,6.97
2022-09-11T18:23:42.507Z,7.15
2022-09-11T18:26:25.850Z,9.32
2022-09-11T18:29:20.147Z,9.88
2022-09-11T18:31:50.092Z,11.10
2022-09-11T18:34:19.492Z,9.70
2022-09-11T18:36:46.127Z,10.98
2022-09-11T18:39:14.719Z,9.75
2022-09-11T18:44:10.944Z,12.10
2022-09-11T18:46:37.663Z,9.43
2022-09-11T18:49:05.033Z,8.55
2022-09-11T18:51:31.813Z,11.15
2022-09-11T18:53:59.524Z,10.38
2022-09-11T18:56:28.537Z,9.30
2022-09-11T19:01:24.240Z,11.77
2022-09-11T19:03:52.012Z,11.23
2022-09-11T19:06:21.219Z,12.07
2022-09-11T19:08:48.613Z,9.60
2022-09-11T19:11:17.963Z,9.98
2022-09-11T19:13:45.855Z,10.50
2022-09-11T19:16:13.079Z,8.85
2022-09-11T19:18:39.775Z,8.88
2022-09-11T19:21:12.077Z,7.80
2022-09-11T19:23:40.785Z,8.18
2022-09-11T19:26:09.671Z,7.28
2022-09-11T19:28:36.511Z,5.40
2022-09-11T19:31:05.573Z,8.02
2022-09-11T19:33:34.259Z,8.07
2022-09-11T19:36:03.719Z,8.70
2022-09-11T19:38:32.628Z,6.80
2022-09-11T19:41:00.792Z,7.45
2022-09-11T19:43:31.839Z,7.82
2022-09-11T19:46:09.261Z,8.27
2022-09-11T19:48:38.059Z,6.45
2022-09-11T19:51:16.142Z,6.82
2022-09-11T19:53:43.408Z,6.88
2022-09-11T19:56:11.535Z,7.05
2022-09-11T19:58:41.420Z,6.95
2022-09-11T20:01:10.518Z,7.05
2022-09-11T20:03:41.953Z,6.50
2022-09-11T20:06:09.557Z,7.18
2022-09-11T20:08:37.296Z,6.07
2022-09-11T20:11:06.835Z,6.73
2022-09-11T20:13:36.883Z,7.85
2022-09-11T20:16:04.783Z,6.50
2022-09-11T20:18:31.621Z,6.80
2022-09-11T20:21:06.469Z,6.57
2022-09-11T20:23:33.129Z,6.63
2022-09-11T20:26:17.991Z,6.82
2022-09-11T20:28:46.118Z,6.80
2022-09-11T20:31:12.827Z,6.43
2022-09-11T20:33:39.832Z,6.60
2022-09-11T20:36:06.713Z,5.68
2022-09-11T20:38:33.504Z,6.32
2022-09-11T20:41:07.078Z,9.73
2022-09-11T20:43:33.719Z,9.95
2022-09-11T20:46:00.606Z,6.88
2022-09-11T20:48:27.334Z,8.32
2022-09-11T20:50:54.133Z,10.25
2022-09-11T20:53:22.989Z,6.72
2022-09-11T20:55:50.290Z,7.43
2022-09-11T20:58:16.917Z,8.63
2022-09-11T21:00:44.829Z,7.35
2022-09-11T21:03:11.940Z,7.15
2022-09-11T21:05:38.860Z,6.60
2022-09-11T21:08:05.455Z,7.78
2022-09-11T21:10:35.698Z,7.93
2022-09-11T21:13:02.673Z,10.02
2022-09-11T21:15:29.401Z,6.88
2022-09-11T21:17:55.989Z,7.78
2022-09-11T21:20:22.857Z,7.78
2022-09-11T21:22:49.877Z,9.13
2022-09-11T21:25:16.700Z,7.47
2022-09-11T21:27:43.375Z,15.45
2022-09-11T21:30:10.311Z,9.57
2022-09-11T21:32:36.847Z,12.40
2022-09-11T21:35:03.700Z,12.32
2022-09-11T21:37:30.292Z,10.48
2022-09-11T21:39:56.888Z,9.57
2022-09-11T21:42:23.472Z,8.35
2022-09-11T21:44:50.080Z,9.35
2022-09-11T21:47:18.668Z,9.35
2022-09-11T21:49:45.424Z,15.15
2022-09-11T21:52:12.079Z,9.95
2022-09-11T21:54:39.203Z,9.90
2022-09-11T21:57:06.125Z,11.38
2022-09-11T21:59:32.852Z,8.95
2022-09-11T22:01:59.447Z,9.90
2022-09-11T22:04:26.075Z,10.05
2022-09-11T22:06:53.377Z,8.73
2022-09-11T22:09:20.831Z,11.68
2022-09-11T22:11:48.172Z,9.23
2022-09-11T22:14:19.077Z,9.82
2022-09-11T22:16:46.252Z,8.63
2022-09-11T22:19:12.887Z,7.65
2022-09-11T22:21:39.908Z,10.43
2022-09-11T22:24:06.528Z,7.75
2022-09-11T22:26:33.216Z,8.68
2022-09-11T22:28:59.983Z,7.88
2022-09-11T22:31:28.401Z,8.32
2022-09-11T22:33:55.794Z,8.23
2022-09-11T22:36:27.298Z,8.05
2022-09-11T22:38:54.360Z,9.98
2022-09-11T22:41:21.673Z,9.65
2022-09-11T22:43:50.175Z,8.45
2022-09-11T22:48:43.926Z,8.60
2022-09-11T22:51:10.712Z,8.98
2022-09-11T22:53:39.564Z,9.35
2022-09-11T22:56:06.795Z,8.88
2022-09-11T22:58:33.427Z,12.48
2022-09-11T23:01:01.582Z,9.30
2022-09-11T23:03:28.156Z,11.63
2022-09-11T23:06:17.167Z,9.65
2022-09-11T23:08:45.668Z,9.35
2022-09-11T23:11:17.041Z,10.48
2022-09-11T23:13:43.952Z,9.50
2022-09-11T23:16:13.286Z,10.93
2022-09-11T23:18:39.956Z,9.73
2022-09-11T23:21:06.632Z,9.55
2022-09-11T23:23:33.223Z,12.02
2022-09-11T23:25:59.757Z,8.40
2022-09-11T23:28:26.356Z,12.00
2022-09-11T23:30:52.884Z,10.57
2022-09-11T23:33:19.426Z,11.63
2022-09-11T23:35:46.028Z,10.77
2022-09-11T23:38:12.613Z,10.57
2022-09-11T23:40:39.215Z,12.10
2022-09-11T23:43:05.789Z,11.32
2022-09-11T23:45:32.457Z,12.80
2022-09-11T23:47:59.057Z,10.40
2022-09-11T23:50:25.621Z,10.90
2022-09-11T23:52:52.217Z,13.95
2022-09-11T23:55:19.232Z,12.55
2022-09-11T23:57:47.895Z,10.80
